createdAt,value
2019-04-04T00:04:15.286Z,16.88
2019-04-04T00:09:22.598Z,16.95
2019-04-04T00:14:29.874Z,16.78
2019-04-04T00:19:37.204Z,16.67
2019-04-04T00:24:44.539Z,17.19
2019-04-04T00:29:51.761Z,14.59
2019-04-04T00:34:59.804Z,16.81
2019-04-04T00:40:05.785Z,15.98
2019-04-04T00:45:12.998Z,15.91
2019-04-04T00:50:20.267Z,13.62
2019-04-04T00:55:27.487Z,16.07
2019-04-04T01:00:34.754Z,16.87
2019-04-04T01:05:41.998Z,16.54
2019-04-04T01:10:49.829Z,16.51
2019-04-04T01:15:56.100Z,16.88
2019-04-04T01:21:03.364Z,15.62
2019-04-04T01:26:10.612Z,16.10
2019-04-04T01:31:17.885Z,15.50
2019-04-04T01:36:25.895Z,15.41
2019-04-04T01:41:31.951Z,14.99
2019-04-04T01:46:39.270Z,15.92
2019-04-04T01:51:46.479Z,15.59
2019-04-04T01:56:53.819Z,14.73
2019-04-04T02:02:01.066Z,14.88
2019-04-04T02:07:08.425Z,14.92
2019-04-04T02:12:15.647Z,14.72
2019-04-04T02:17:22.978Z,14.84
2019-04-04T02:22:31.035Z,15.45
2019-04-04T02:27:37.921Z,15.59
2019-04-04T02:32:43.893Z,15.08
2019-04-04T02:37:54.955Z,14.98
2019-04-04T02:42:58.092Z,15.42
2019-04-04T02:48:05.381Z,14.62
2019-04-04T02:53:12.601Z,15.90
2019-04-04T02:58:19.873Z,16.40
2019-04-04T03:03:27.106Z,16.03
2019-04-04T03:08:36.758Z,15.09
2019-04-04T03:13:41.214Z,14.50
2019-04-04T03:18:48.520Z,15.85
2019-04-04T03:23:55.842Z,15.70
2019-04-04T03:29:05.489Z,14.94
2019-04-04T03:34:12.194Z,15.84
2019-04-04T03:39:19.105Z,14.79
2019-04-04T03:44:23.445Z,14.60
2019-04-04T03:49:30.814Z,14.34
2019-04-04T03:54:38.129Z,14.62
2019-04-04T03:59:45.381Z,13.57
2019-04-04T04:04:52.658Z,14.34
2019-04-04T04:10:00.443Z,14.82
2019-04-04T04:15:06.685Z,14.99
2019-04-04T04:20:14.050Z,14.89
2019-04-04T04:25:21.314Z,15.24
2019-04-04T04:30:28.615Z,15.41
2019-04-04T04:35:40.914Z,14.97
2019-04-04T04:40:47.061Z,15.18
2019-04-04T04:45:49.436Z,14.62
2019-04-04T04:50:56.715Z,14.92
2019-04-04T04:56:04.068Z,14.68
2019-04-04T05:01:11.280Z,15.22
2019-04-04T05:06:18.695Z,15.42
2019-04-04T05:11:25.891Z,15.41
2019-04-04T05:16:33.314Z,14.57
2019-04-04T05:21:40.711Z,14.77
2019-04-04T05:26:47.990Z,15.05
2019-04-04T05:31:55.269Z,14.55
2019-04-04T05:37:02.663Z,14.24
2019-04-04T05:42:09.948Z,14.09
2019-04-04T05:47:17.251Z,14.98
2019-04-04T05:52:24.619Z,14.76
2019-04-04T05:57:31.980Z,14.23
2019-04-04T06:02:41.076Z,14.65
2019-04-04T06:07:46.064Z,14.41
2019-04-04T06:12:54.325Z,14.01
2019-04-04T06:18:00.231Z,14.10
2019-04-04T06:23:07.552Z,13.47
2019-04-04T06:28:14.903Z,14.48
2019-04-04T06:33:22.199Z,14.23
2019-04-04T06:38:29.545Z,14.26
2019-04-04T06:43:36.867Z,14.10
2019-04-04T06:48:44.173Z,13.02
2019-04-04T06:53:53.654Z,12.07
2019-04-04T06:58:58.409Z,14.42
2019-04-04T07:04:05.639Z,13.90
2019-04-04T07:09:13.457Z,14.03
2019-04-04T07:14:20.034Z,13.89
2019-04-04T07:19:27.425Z,14.27
2019-04-04T07:24:34.935Z,13.83
2019-04-04T07:29:42.223Z,13.77
2019-04-04T07:34:49.465Z,14.30
2019-04-04T07:39:56.725Z,13.69
2019-04-04T07:45:04.005Z,12.69
2019-04-04T07:50:11.235Z,14.07
2019-04-04T07:55:18.938Z,14.32
2019-04-04T08:00:26.145Z,13.95
2019-04-04T08:05:33.452Z,13.26
2019-04-04T08:10:40.781Z,13.55
2019-04-04T08:15:51.415Z,14.58
2019-04-04T08:20:48.649Z,14.14
2019-04-04T08:25:55.962Z,13.67
2019-04-04T08:31:03.234Z,13.08
2019-04-04T08:36:10.485Z,13.31
2019-04-04T08:41:17.718Z,13.31
2019-04-04T08:46:25.044Z,11.56
2019-04-04T08:51:32.306Z,11.46
2019-04-04T08:56:39.585Z,12.04
2019-04-04T09:01:46.923Z,12.51
2019-04-04T09:06:54.174Z,10.59
2019-04-04T09:12:01.486Z,11.75
2019-04-04T09:17:08.730Z,10.21
2019-04-04T09:22:16.045Z,11.14
2019-04-04T09:27:23.332Z,11.13
2019-04-04T09:32:30.655Z,10.34
2019-04-04T09:37:37.876Z,11.31
2019-04-04T09:42:45.230Z,10.64
2019-04-04T09:47:52.486Z,11.71
2019-04-04T09:52:59.706Z,12.09
2019-04-04T09:58:06.965Z,13.05
2019-04-04T10:03:14.214Z,15.42
2019-04-04T10:08:21.695Z,13.70
2019-04-04T10:13:28.845Z,16.42
2019-04-04T10:18:36.155Z,17.40
2019-04-04T10:23:44.215Z,16.01
2019-04-04T10:28:51.549Z,16.30
2019-04-04T10:33:58.937Z,17.16
2019-04-04T10:39:06.184Z,17.42
2019-04-04T10:44:13.456Z,18.41
2019-04-04T10:49:20.794Z,16.62
2019-04-04T10:54:28.122Z,17.26
2019-04-04T10:59:35.519Z,18.30
2019-04-04T11:04:42.840Z,16.73
2019-04-04T11:09:50.396Z,16.89
2019-04-04T11:14:57.727Z,16.61
2019-04-04T11:20:05.027Z,17.02
2019-04-04T11:25:12.327Z,17.05
2019-04-04T11:30:19.641Z,16.66
2019-04-04T11:35:26.938Z,15.57
2019-04-04T11:40:34.230Z,14.41
2019-04-04T11:45:41.567Z,16.62
2019-04-04T11:50:48.927Z,16.89
2019-04-04T11:55:56.202Z,17.35
2019-04-04T12:01:03.445Z,14.77
2019-04-04T12:06:10.851Z,13.83
2019-04-04T12:11:18.175Z,14.99
2019-04-04T12:16:25.558Z,15.68
2019-04-04T12:21:32.783Z,16.61
2019-04-04T12:26:40.099Z,15.84
2019-04-04T12:31:47.680Z,16.85
2019-04-04T12:36:54.703Z,15.76
2019-04-04T12:42:02.023Z,16.13
2019-04-04T12:47:09.322Z,13.83
2019-04-04T12:52:16.607Z,13.56
2019-04-04T12:57:23.850Z,16.08
2019-04-04T13:02:31.158Z,13.36
2019-04-04T13:07:38.444Z,15.38
2019-04-04T13:12:45.845Z,13.35
2019-04-04T13:17:53.249Z,13.22
2019-04-04T13:23:00.576Z,12.49
2019-04-04T13:28:07.890Z,14.90
2019-04-04T13:33:15.180Z,15.86
2019-04-04T13:38:22.464Z,17.00
2019-04-04T13:43:29.738Z,16.12
2019-04-04T13:48:37.107Z,20.26
2019-04-04T13:53:44.435Z,18.19
2019-04-04T13:58:51.743Z,17.83
2019-04-04T14:03:59.147Z,21.45
2019-04-04T14:09:06.517Z,20.87
2019-04-04T14:14:13.836Z,18.69
2019-04-04T14:19:21.157Z,20.33
2019-04-04T14:24:28.435Z,22.77
2019-04-04T14:29:35.703Z,21.26
2019-04-04T14:34:43.071Z,23.19
2019-04-04T14:39:50.318Z,23.16
2019-04-04T14:44:57.728Z,19.03
2019-04-04T14:50:05.022Z,18.79
2019-04-04T14:55:12.302Z,19.27
2019-04-04T15:00:19.645Z,21.78
2019-04-04T15:05:26.910Z,22.11
2019-04-04T15:10:34.189Z,20.75
2019-04-04T15:15:41.516Z,21.15
2019-04-04T15:20:48.762Z,22.97
2019-04-04T15:25:56.213Z,22.57
2019-04-04T15:31:03.413Z,21.00
2019-04-04T15:36:10.729Z,20.77
2019-04-04T15:41:17.966Z,19.62
2019-04-04T15:46:25.234Z,18.67
2019-04-04T15:51:32.474Z,13.83
2019-04-04T15:56:39.737Z,14.30
2019-04-04T16:01:47.042Z,13.57
2019-04-04T16:06:54.622Z,16.73
2019-04-04T16:12:01.973Z,16.77
2019-04-04T16:17:09.297Z,18.38
2019-04-04T16:22:16.543Z,17.30
2019-04-04T16:27:23.892Z,18.56
2019-04-04T16:32:31.285Z,18.94
2019-04-04T16:37:38.683Z,18.32
2019-04-04T16:42:46.033Z,20.14
2019-04-04T16:47:53.359Z,19.77
2019-04-04T16:53:00.718Z,19.24
2019-04-04T16:58:07.974Z,18.45
2019-04-04T17:03:15.298Z,18.75
2019-04-04T17:08:22.569Z,19.30
2019-04-04T17:13:29.893Z,17.23
2019-04-04T17:18:37.179Z,19.22
2019-04-04T17:23:44.531Z,17.05
2019-04-04T17:28:52.432Z,17.76
2019-04-04T17:34:00.271Z,17.78
2019-04-04T17:39:07.578Z,28.46
2019-04-04T17:44:14.892Z,45.73
2019-04-04T17:49:22.221Z,19.79
2019-04-04T17:54:29.575Z,17.17
2019-04-04T17:59:36.817Z,16.96
2019-04-04T18:04:48.605Z,16.20
2019-04-04T18:09:50.923Z,16.18
2019-04-04T18:14:58.385Z,17.41
2019-04-04T18:20:05.689Z,17.28
2019-04-04T18:25:13.633Z,17.49
2019-04-04T18:30:21.235Z,17.02
2019-04-04T18:35:28.807Z,17.37
2019-04-04T18:40:35.392Z,16.73
2019-04-04T18:45:42.772Z,17.56
2019-04-04T18:50:50.037Z,18.00
2019-04-04T18:55:57.354Z,18.17
2019-04-04T19:01:04.681Z,17.58
2019-04-04T19:06:12.050Z,17.33
2019-04-04T19:11:19.447Z,17.58
2019-04-04T19:16:26.847Z,18.02
2019-04-04T19:21:34.186Z,18.03
2019-04-04T19:26:41.763Z,18.96
2019-04-04T19:31:49.102Z,18.32
2019-04-04T19:36:56.465Z,19.07
2019-04-04T19:42:05.118Z,19.26
2019-04-04T19:47:10.675Z,20.48
2019-04-04T19:52:18.256Z,20.26
2019-04-04T19:57:25.643Z,19.34
2019-04-04T20:02:33.236Z,19.99
2019-04-04T20:07:40.852Z,19.53
2019-04-04T20:12:48.139Z,20.78
2019-04-04T20:17:55.409Z,21.69
2019-04-04T20:23:02.771Z,22.05
2019-04-04T20:28:10.134Z,21.37
2019-04-04T20:33:17.505Z,21.83
2019-04-04T20:38:25.452Z,21.83
2019-04-04T20:43:42.805Z,22.30
2019-04-04T20:48:39.475Z,21.64
2019-04-04T20:53:46.903Z,21.12
2019-04-04T20:58:54.195Z,19.20
2019-04-04T21:04:01.625Z,21.38
2019-04-04T21:09:08.964Z,21.52
2019-04-04T21:14:16.285Z,21.94
2019-04-04T21:19:23.612Z,23.93
2019-04-04T21:24:30.903Z,23.77
2019-04-04T21:29:38.181Z,23.27
2019-04-04T21:34:45.497Z,23.95
2019-04-04T21:39:52.753Z,25.81
2019-04-04T21:45:00.125Z,24.17
2019-04-04T21:50:07.395Z,27.29
2019-04-04T21:55:14.744Z,24.75
2019-04-04T22:00:22.051Z,26.29
2019-04-04T22:05:29.309Z,27.14
2019-04-04T22:10:36.603Z,27.12
2019-04-04T22:15:43.830Z,26.02
2019-04-04T22:20:51.107Z,26.41
2019-04-04T22:25:58.429Z,27.13
2019-04-04T22:31:05.766Z,26.56
2019-04-04T22:36:14.394Z,27.65
2019-04-04T22:41:21.805Z,26.84
2019-04-04T22:46:29.111Z,27.48
2019-04-04T22:51:36.455Z,26.85
2019-04-04T22:56:43.882Z,25.96
2019-04-04T23:01:51.309Z,27.53
2019-04-04T23:06:58.620Z,27.57
2019-04-04T23:12:05.822Z,26.82
2019-04-04T23:17:13.174Z,27.01
2019-04-04T23:22:20.342Z,28.58
2019-04-04T23:27:27.645Z,29.82
2019-04-04T23:32:34.901Z,29.17
2019-04-04T23:37:42.190Z,28.08
2019-04-04T23:42:49.543Z,29.06
2019-04-04T23:47:56.846Z,26.52
2019-04-04T23:53:04.074Z,27.48
2019-04-04T23:58:11.385Z,26.83
